This is the latest recevied weather packets stored in our database for station/object LRBM. If no packets are shown the sender has not sent any weather packets the latest 10 day(s).
| Time | Temp. | Humidity | Pressure | Rain* | Wind** | Luminosity | Snow |
|---|---|---|---|---|---|---|---|
| 1777684716 | 2.78° C | 81% | 1023 hPa | - | - | - | - |
| 1777683815 | 2.78° C | 81% | 1023 hPa | - | - | - | - |
| 1777682915 | 3.89° C | 75% | 1024 hPa | - | - | - | - |
| 1777682016 | 3.89° C | 75% | 1024 hPa | - | - | - | - |
| 1777681115 | 5° C | 70% | 1024 hPa | - | - | - | - |
| 1777680216 | 5° C | 70% | 1024 hPa | - | - | - | - |
| 1777679326 | 6.11° C | 66% | 1024 hPa | - | - | - | - |
| 1777678416 | 6.11° C | 66% | 1024 hPa | - | - | - | - |
| 1777677515 | 7.22° C | 66% | 1024 hPa | - | - | - | - |
| 1777676616 | 7.22° C | 66% | 1024 hPa | - | - | - | - |
| 1777675716 | 7.78° C | 57% | 1024 hPa | - | - | - | - |
| 1777674816 | 7.78° C | 57% | 1024 hPa | - | - | - | - |
| 1777673915 | 7.22° C | 61% | 1024 hPa | - | - | - | - |
| 1777673015 | 7.22° C | 61% | 1024 hPa | - | - | - | - |
| 1777672115 | 7.78° C | 57% | 1024 hPa | - | - | - | - |
| 1777671216 | 7.78° C | 57% | 1024 hPa | - | - | - | - |
| 1777670315 | 7.78° C | 57% | 1024 hPa | - | - | - | - |
| 1777669416 | 7.78° C | 57% | 1024 hPa | - | - | - | - |
| 1777668515 | 8.89° C | 50% | 1024 hPa | - | - | - | - |
| 1777667615 | 8.89° C | 50% | 1024 hPa | - | - | - | - |
| 1777666716 | 10° C | 47% | 1023 hPa | - | - | - | - |
| 1777665815 | 10° C | 47% | 1023 hPa | - | - | - | - |
| 1777664933 | 10° C | 50% | 1023 hPa | - | - | - | - |
| 1777664037 | 10° C | 50% | 1023 hPa | - | - | - | - |
| 1777663115 | 11.11° C | 47% | 1023 hPa | - | - | - | - |
* Rain since midnight (hover to see other rain measurements)
** Current wind speed in m/s (hover to see current wind gust speed)